Time;durP1;ratioP1;P1;durP2;ratioP2;P2;SDS_P1;SDS_P2;PMS_P1;PMS_P2;Temp;Humidity;BMP_temperature;BMP_pressure;BME280_temperature;BME280_humidity;BME280_pressure;Samples;Min_cycle;Max_cycle;Signal;HPM_P1;HPM_P2
2022/10/07 00:01:27;;;;;;;0.00;0.00;;;;;;;;;;5113417;28;20019;-72
2022/10/07 00:03:54;;;;;;;0.00;0.00;;;;;;;;;;5113252;28;20047;-71
2022/10/07 00:06:20;;;;;;;0.00;0.00;;;;;;;;;;5106420;28;20031;-72
2022/10/07 00:08:48;;;;;;;0.00;0.00;;;;;;;;;;5074287;28;20073;-72
2022/10/07 00:11:25;;;;;;;0.00;0.00;;;;;;;;;;5074578;28;20027;-72
2022/10/07 00:13:52;;;;;;;0.00;0.00;;;;;;;;;;5092575;28;20012;-72
2022/10/07 00:16:23;;;;;;;0.00;0.00;;;;;;;;;;5074573;28;20016;-72
2022/10/07 00:18:50;;;;;;;0.00;0.00;;;;;;;;;;5074125;28;20031;-72
2022/10/07 00:21:17;;;;;;;0.00;0.00;;;;;;;;;;5074477;28;20051;-72
2022/10/07 00:23:44;;;;;;;0.00;0.00;;;;;;;;;;5079801;28;20032;-72
2022/10/07 00:26:12;;;;;;;0.00;0.00;;;;;;;;;;5073888;28;20024;-72
2022/10/07 00:28:38;;;;;;;0.00;0.00;;;;;;;;;;5092633;28;20103;-72
2022/10/07 00:31:06;;;;;;;0.00;0.00;;;;;;;;;;5108286;28;20028;-73
2022/10/07 00:33:34;;;;;;;0.00;0.00;;;;;;;;;;5092640;28;20016;-71
2022/10/07 00:36:01;;;;;;;0.00;0.00;;;;;;;;;;5092630;28;20114;-72
2022/10/07 00:38:27;;;;;;;0.00;0.00;;;;;;;;;;5092740;28;20024;-72
2022/10/07 00:40:54;;;;;;;0.22;0.22;;;;;;;;;;5100820;28;20126;-72
2022/10/07 00:43:30;;;;;;;0.00;0.00;;;;;;;;;;5072433;28;20032;-72
2022/10/07 00:46:07;;;;;;;0.00;0.00;;;;;;;;;;5053850;28;20029;-72
2022/10/07 00:48:34;;;;;;;0.00;0.00;;;;;;;;;;5072272;28;20513;-72
2022/10/07 00:51:01;;;;;;;0.10;0.10;;;;;;;;;;5073558;28;20124;-72
2022/10/07 00:53:29;;;;;;;0.00;0.00;;;;;;;;;;5077541;28;20115;-72
2022/10/07 00:56:00;;;;;;;0.13;0.13;;;;;;;;;;5073181;28;20017;-72
2022/10/07 00:58:27;;;;;;;0.00;0.00;;;;;;;;;;5088859;28;20020;-72
2022/10/07 01:00:53;;;;;;;0.00;0.00;;;;;;;;;;5092206;28;20024;-72
2022/10/07 01:03:20;;;;;;;0.00;0.00;;;;;;;;;;5092303;28;20027;-72
2022/10/07 01:05:46;;;;;;;0.00;0.00;;;;;;;;;;5092350;28;20024;-72
2022/10/07 01:08:14;;;;;;;0.28;0.28;;;;;;;;;;5092297;28;20020;-72
2022/10/07 01:10:59;;;;;;;0.10;0.10;;;;;;;;;;5088763;28;20032;-72
2022/10/07 01:13:35;;;;;;;0.00;0.00;;;;;;;;;;5086473;28;20027;-72
2022/10/07 01:16:29;;;;;;;0.00;0.00;;;;;;;;;;5092330;28;20473;-72
2022/10/07 01:19:10;;;;;;;0.00;0.00;;;;;;;;;;5061818;28;20063;-73
2022/10/07 01:21:43;;;;;;;0.00;0.00;;;;;;;;;;5074039;28;20039;-72
2022/10/07 01:24:22;;;;;;;0.00;0.00;;;;;;;;;;5074801;28;20020;-71
2022/10/07 01:26:56;;;;;;;0.00;0.00;;;;;;;;;;5094015;28;20028;-72
2022/10/07 01:29:22;;;;;;;0.00;0.00;;;;;;;;;;5104142;28;20027;-72
2022/10/07 01:31:56;;;;;;;2.85;2.55;;;;;;;;;;5090032;28;20107;-71
2022/10/07 01:34:25;;;;;;;0.00;0.00;;;;;;;;;;5092986;28;20115;-72
2022/10/07 01:36:53;;;;;;;0.00;0.00;;;;;;;;;;5096594;28;20498;-72
2022/10/07 01:39:22;;;;;;;0.10;0.10;;;;;;;;;;5100845;28;20059;-72
2022/10/07 01:41:50;;;;;;;0.00;0.00;;;;;;;;;;5115161;28;20125;-73
2022/10/07 01:44:16;;;;;;;0.00;0.00;;;;;;;;;;5101374;28;20046;-73
2022/10/07 01:46:43;;;;;;;0.00;0.00;;;;;;;;;;5118895;28;20023;-73
2022/10/07 01:49:09;;;;;;;0.00;0.00;;;;;;;;;;5100356;28;20034;-73
2022/10/07 01:51:38;;;;;;;0.00;0.00;;;;;;;;;;5099812;28;20481;-73
2022/10/07 01:54:10;;;;;;;0.00;0.00;;;;;;;;;;5117383;28;20094;-72
2022/10/07 01:56:43;;;;;;;2.70;2.47;;;;;;;;;;5116799;28;20020;-72
2022/10/07 01:59:18;;;;;;;0.00;0.00;;;;;;;;;;5116130;28;20031;-72
2022/10/07 02:01:47;;;;;;;0.00;0.00;;;;;;;;;;5114967;28;20065;-72
2022/10/07 02:04:13;;;;;;;0.85;0.85;;;;;;;;;;5103917;28;20055;-73
2022/10/07 02:06:59;;;;;;;0.00;0.00;;;;;;;;;;5088262;28;20221;-73
2022/10/07 02:09:31;;;;;;;0.00;0.00;;;;;;;;;;5107620;28;20026;-72
2022/10/07 02:12:04;;;;;;;0.00;0.00;;;;;;;;;;5115332;28;20020;-73
2022/10/07 02:14:44;;;;;;;0.00;0.00;;;;;;;;;;5096683;28;20051;-72
2022/10/07 02:17:17;;;;;;;0.00;0.00;;;;;;;;;;5104219;28;20020;-73
2022/10/07 02:19:46;;;;;;;0.00;0.00;;;;;;;;;;5100025;28;20028;-71
2022/10/07 02:22:14;;;;;;;0.00;0.00;;;;;;;;;;5100358;28;20032;-72
2022/10/07 02:24:42;;;;;;;0.00;0.00;;;;;;;;;;5079123;28;20028;-72
2022/10/07 02:27:13;;;;;;;0.03;0.03;;;;;;;;;;5086221;28;20097;-75
2022/10/07 02:29:40;;;;;;;0.00;0.00;;;;;;;;;;5099735;28;20027;-72
2022/10/07 02:32:09;;;;;;;0.03;0.03;;;;;;;;;;5103349;27;20433;-73
2022/10/07 02:34:37;;;;;;;0.00;0.00;;;;;;;;;;5097044;28;20036;-72
2022/10/07 02:37:11;;;;;;;0.00;0.00;;;;;;;;;;5103531;28;20104;-72
2022/10/07 02:39:37;;;;;;;0.47;0.45;;;;;;;;;;5087594;28;20036;-73
2022/10/07 02:42:04;;;;;;;0.00;0.00;;;;;;;;;;5107368;28;20079;-72
2022/10/07 02:44:37;;;;;;;0.00;0.00;;;;;;;;;;5103939;27;20028;-72
2022/10/07 02:47:06;;;;;;;0.00;0.00;;;;;;;;;;5104876;28;20015;-73
2022/10/07 02:49:36;;;;;;;0.00;0.00;;;;;;;;;;5103175;28;20442;-71
2022/10/07 02:52:06;;;;;;;0.00;0.00;;;;;;;;;;5082768;28;20539;-70
2022/10/07 02:54:40;;;;;;;0.00;0.00;;;;;;;;;;5105456;28;20023;-73
2022/10/07 02:57:07;;;;;;;0.00;0.00;;;;;;;;;;5103568;27;20020;-75
2022/10/07 02:59:33;;;;;;;0.00;0.00;;;;;;;;;;5102875;27;20015;-72
2022/10/07 03:02:01;;;;;;;0.00;0.00;;;;;;;;;;5098429;27;20028;-73
2022/10/07 03:04:28;;;;;;;0.00;0.00;;;;;;;;;;5080814;28;20030;-71
2022/10/07 03:06:57;;;;;;;0.55;0.55;;;;;;;;;;5086836;28;20323;-72
2022/10/07 03:09:23;;;;;;;0.00;0.00;;;;;;;;;;5081592;28;20031;-71
2022/10/07 03:11:50;;;;;;;0.32;0.32;;;;;;;;;;5097548;28;20038;-72
2022/10/07 03:14:16;;;;;;;0.00;0.00;;;;;;;;;;5102545;28;20024;-71
2022/10/07 03:16:42;;;;;;;0.00;0.00;;;;;;;;;;5083931;28;20032;-72
2022/10/07 03:19:09;;;;;;;0.20;0.20;;;;;;;;;;5082514;28;20101;-73
2022/10/07 03:21:36;;;;;;;0.00;0.00;;;;;;;;;;5084233;28;20027;-73
2022/10/07 03:24:03;;;;;;;0.00;0.00;;;;;;;;;;5097739;28;20055;-76
2022/10/07 03:26:34;;;;;;;0.00;0.00;;;;;;;;;;5104371;28;20024;-74
2022/10/07 03:29:01;;;;;;;0.00;0.00;;;;;;;;;;5100997;28;20020;-74
2022/10/07 03:31:27;;;;;;;0.00;0.00;;;;;;;;;;5099510;27;20555;-73
2022/10/07 03:33:58;;;;;;;0.43;0.43;;;;;;;;;;5078684;28;20017;-73
2022/10/07 03:36:24;;;;;;;0.55;0.55;;;;;;;;;;5099835;27;20095;-73
2022/10/07 03:38:54;;;;;;;0.00;0.00;;;;;;;;;;5095826;27;22102;-73
2022/10/07 03:41:21;;;;;;;1.40;1.20;;;;;;;;;;5080565;28;20052;-73
2022/10/07 03:43:47;;;;;;;0.10;0.10;;;;;;;;;;5102445;27;20063;-73
2022/10/07 03:46:13;;;;;;;0.00;0.00;;;;;;;;;;5080729;28;20039;-72
2022/10/07 03:48:40;;;;;;;0.00;0.00;;;;;;;;;;5082912;28;20034;-72
2022/10/07 03:51:06;;;;;;;0.00;0.00;;;;;;;;;;5083196;28;20053;-73
2022/10/07 03:53:33;;;;;;;0.65;0.65;;;;;;;;;;5102339;27;20024;-72
2022/10/07 03:55:59;;;;;;;1.20;1.20;;;;;;;;;;5100558;27;20492;-72
2022/10/07 03:58:25;;;;;;;1.95;1.00;;;;;;;;;;5088228;27;20027;-73
2022/10/07 04:00:52;;;;;;;40.67;25.48;;;;;;;;;;5084534;28;20036;-73
2022/10/07 04:03:18;;;;;;;1.75;1.65;;;;;;;;;;5103640;27;20501;-72
2022/10/07 04:05:58;;;;;;;2.08;1.45;;;;;;;;;;5084367;27;20469;-73
2022/10/07 04:08:26;;;;;;;0.00;0.00;;;;;;;;;;5086600;28;20024;-75
2022/10/07 04:10:53;;;;;;;0.30;0.30;;;;;;;;;;5099271;28;20023;-76
2022/10/07 04:13:19;;;;;;;0.00;0.00;;;;;;;;;;5101674;28;20020;-75
2022/10/07 04:15:46;;;;;;;0.60;0.52;;;;;;;;;;5095216;28;20027;-76
2022/10/07 04:18:12;;;;;;;0.00;0.00;;;;;;;;;;5095209;28;20054;-79
2022/10/07 04:20:38;;;;;;;0.00;0.00;;;;;;;;;;5080869;28;20088;-79
2022/10/07 04:23:05;;;;;;;6.03;1.25;;;;;;;;;;5082459;28;20028;-79
2022/10/07 04:25:34;;;;;;;19.05;17.85;;;;;;;;;;5104302;28;20031;-80
2022/10/07 04:28:05;;;;;;;1.17;1.10;;;;;;;;;;5102138;28;20066;-79
2022/10/07 04:30:33;;;;;;;1.00;1.00;;;;;;;;;;5103936;28;20021;-80
2022/10/07 04:33:02;;;;;;;0.00;0.00;;;;;;;;;;5096796;28;20047;-78
2022/10/07 04:35:29;;;;;;;0.00;0.00;;;;;;;;;;5096585;28;20016;-78
2022/10/07 04:37:55;;;;;;;0.10;0.10;;;;;;;;;;5098612;28;20031;-80
2022/10/07 04:40:23;;;;;;;0.00;0.00;;;;;;;;;;5100862;28;20062;-82
2022/10/07 04:45:37;;;;;;;0.00;0.00;;;;;;;;;;5104897;28;20073;-83
2022/10/07 04:48:04;;;;;;;32.67;8.70;;;;;;;;;;5082889;28;20063;-79
2022/10/07 04:50:37;;;;;;;0.22;0.22;;;;;;;;;;5087017;28;20482;-83
2022/10/07 04:53:06;;;;;;;1.00;1.00;;;;;;;;;;5123824;27;20103;-77
2022/10/07 04:55:39;;;;;;;0.00;0.00;;;;;;;;;;5116765;28;20059;-79
2022/10/07 04:58:06;;;;;;;8.10;1.52;;;;;;;;;;5106551;28;20038;-80
2022/10/07 05:00:33;;;;;;;1.20;1.20;;;;;;;;;;5104328;28;20484;-79
2022/10/07 05:03:00;;;;;;;0.10;0.10;;;;;;;;;;5087880;28;20389;-76
2022/10/07 05:05:26;;;;;;;4.90;3.67;;;;;;;;;;5079509;28;20461;-75
2022/10/07 05:07:54;;;;;;;0.25;0.15;;;;;;;;;;5091310;28;20028;-75
2022/10/07 05:10:21;;;;;;;13.85;8.38;;;;;;;;;;5084135;28;20023;-74
2022/10/07 05:12:47;;;;;;;4.30;1.58;;;;;;;;;;5104986;28;20027;-76
2022/10/07 05:15:13;;;;;;;1.08;0.98;;;;;;;;;;5103904;28;20028;-77
2022/10/07 05:17:40;;;;;;;1.58;1.48;;;;;;;;;;5104045;27;20024;-77
2022/10/07 05:20:07;;;;;;;0.40;0.40;;;;;;;;;;5109807;27;20119;-76
2022/10/07 05:22:34;;;;;;;1.30;0.93;;;;;;;;;;5089341;27;20813;-76
2022/10/07 05:25:00;;;;;;;1.08;1.08;;;;;;;;;;5115514;27;20031;-76
2022/10/07 05:27:26;;;;;;;0.60;0.60;;;;;;;;;;5118137;27;20527;-74
2022/10/07 05:29:53;;;;;;;1.20;1.20;;;;;;;;;;5105991;27;20371;-74
2022/10/07 05:32:20;;;;;;;0.00;0.00;;;;;;;;;;5102492;27;20027;-76
2022/10/07 05:34:46;;;;;;;3.72;1.00;;;;;;;;;;5106234;27;20664;-76
2022/10/07 05:37:14;;;;;;;0.20;0.20;;;;;;;;;;5092843;27;20031;-75
2022/10/07 05:39:40;;;;;;;0.63;0.63;;;;;;;;;;5104880;28;20027;-78
2022/10/07 05:42:07;;;;;;;1.35;1.27;;;;;;;;;;5102695;27;20032;-76
2022/10/07 05:44:33;;;;;;;4.22;3.50;;;;;;;;;;5081848;28;20032;-76
2022/10/07 05:47:00;;;;;;;2.10;1.42;;;;;;;;;;5085490;28;20024;-76
2022/10/07 05:49:27;;;;;;;2.00;0.38;;;;;;;;;;5083384;28;20445;-75
2022/10/07 05:51:53;;;;;;;28.67;25.63;;;;;;;;;;5103398;27;20103;-77
2022/10/07 05:54:19;;;;;;;0.40;0.40;;;;;;;;;;5086227;27;20019;-75
2022/10/07 05:56:46;;;;;;;1.17;1.17;;;;;;;;;;5083310;28;20031;-77
2022/10/07 05:59:16;;;;;;;0.25;0.25;;;;;;;;;;5101108;27;20584;-76
2022/10/07 06:01:42;;;;;;;1.55;1.17;;;;;;;;;;5082251;28;20115;-77
2022/10/07 06:04:12;;;;;;;3.00;2.78;;;;;;;;;;5097243;28;20024;-75
2022/10/07 06:06:39;;;;;;;0.10;0.10;;;;;;;;;;5092613;28;20023;-75
2022/10/07 06:14:35;;;;;;;3.63;0.52;;;;;;;;;;5099665;27;20100;-75
2022/10/07 06:17:01;;;;;;;0.82;0.68;;;;;;;;;;5098197;27;20032;-75
2022/10/07 06:19:28;;;;;;;1.08;0.80;;;;;;;;;;5100592;28;20027;-75
2022/10/07 06:21:54;;;;;;;0.00;0.00;;;;;;;;;;5100990;27;20027;-77
2022/10/07 06:24:20;;;;;;;0.47;0.47;;;;;;;;;;5095589;28;20028;-75
2022/10/07 06:26:48;;;;;;;1.30;1.23;;;;;;;;;;5102651;27;20478;-75
2022/10/07 06:29:15;;;;;;;0.40;0.40;;;;;;;;;;5102425;27;20103;-75
2022/10/07 06:31:41;;;;;;;1.42;1.38;;;;;;;;;;5097877;27;20028;-76
2022/10/07 06:34:07;;;;;;;0.10;0.10;;;;;;;;;;5098576;28;20031;-74
2022/10/07 06:36:34;;;;;;;0.00;0.00;;;;;;;;;;5100418;28;20012;-75
2022/10/07 06:39:01;;;;;;;0.22;0.20;;;;;;;;;;5097876;27;20031;-75
2022/10/07 06:41:27;;;;;;;0.00;0.00;;;;;;;;;;5099565;27;20138;-75
2022/10/07 06:43:57;;;;;;;2.10;2.00;;;;;;;;;;5079934;27;20024;-75
2022/10/07 06:46:23;;;;;;;4.03;2.38;;;;;;;;;;5078126;27;20027;-74
2022/10/07 06:48:50;;;;;;;1.50;1.38;;;;;;;;;;5081631;28;20020;-74
2022/10/07 06:51:17;;;;;;;1.08;1.08;;;;;;;;;;5090146;28;20466;-74
2022/10/07 06:53:44;;;;;;;0.00;0.00;;;;;;;;;;5097101;27;20066;-75
2022/10/07 06:56:12;;;;;;;9.70;1.75;;;;;;;;;;5099324;27;20035;-74
2022/10/07 06:58:38;;;;;;;0.20;0.20;;;;;;;;;;5101484;28;20024;-76
2022/10/07 07:01:05;;;;;;;4.38;1.00;;;;;;;;;;5100758;27;20088;-75
2022/10/07 07:03:31;;;;;;;0.85;0.85;;;;;;;;;;5112372;27;20556;-75
2022/10/07 07:05:58;;;;;;;0.13;0.13;;;;;;;;;;5107651;28;20032;-74
2022/10/07 07:08:30;;;;;;;1.98;1.35;;;;;;;;;;5106168;28;20032;-74
2022/10/07 07:11:01;;;;;;;0.10;0.10;;;;;;;;;;5119116;28;20087;-74
2022/10/07 07:13:28;;;;;;;13.50;3.33;;;;;;;;;;5113322;28;20028;-75
2022/10/07 07:15:58;;;;;;;0.28;0.28;;;;;;;;;;5106274;28;20047;-75
2022/10/07 07:18:25;;;;;;;0.00;0.00;;;;;;;;;;5097723;27;20015;-76
2022/10/07 07:20:51;;;;;;;0.00;0.00;;;;;;;;;;5103100;27;20038;-75
2022/10/07 07:23:18;;;;;;;1.00;0.60;;;;;;;;;;5105719;28;20036;-75
2022/10/07 07:25:44;;;;;;;1.77;1.17;;;;;;;;;;5083694;28;20035;-74
2022/10/07 07:28:11;;;;;;;1.08;1.05;;;;;;;;;;5096567;27;20113;-75
2022/10/07 07:30:38;;;;;;;0.20;0.20;;;;;;;;;;5092153;28;20047;-75
2022/10/07 07:33:04;;;;;;;0.68;0.68;;;;;;;;;;5090106;28;20066;-76
2022/10/07 07:35:31;;;;;;;0.35;0.35;;;;;;;;;;5074538;28;20024;-75
2022/10/07 07:37:58;;;;;;;0.00;0.00;;;;;;;;;;5093501;27;20058;-75
2022/10/07 07:40:25;;;;;;;0.38;0.38;;;;;;;;;;5074736;28;20059;-74
2022/10/07 07:42:54;;;;;;;1.55;0.75;;;;;;;;;;5094935;28;20107;-75
2022/10/07 07:45:21;;;;;;;0.00;0.00;;;;;;;;;;5095042;27;20172;-75
2022/10/07 07:47:48;;;;;;;0.00;0.00;;;;;;;;;;5081752;28;20396;-76
2022/10/07 07:50:15;;;;;;;0.00;0.00;;;;;;;;;;5089895;28;20043;-77
2022/10/07 07:52:41;;;;;;;0.57;0.57;;;;;;;;;;5100216;28;20031;-75
2022/10/07 07:55:07;;;;;;;7.20;1.33;;;;;;;;;;5103924;27;21112;-75
2022/10/07 07:57:34;;;;;;;0.00;0.00;;;;;;;;;;5097183;27;20020;-75
2022/10/07 08:00:00;;;;;;;0.00;0.00;;;;;;;;;;5095072;27;20031;-75
2022/10/07 08:02:36;;;;;;;0.00;0.00;;;;;;;;;;5104352;27;20080;-75
2022/10/07 08:05:03;;;;;;;0.00;0.00;;;;;;;;;;5101310;28;20024;-76
2022/10/07 08:07:29;;;;;;;0.20;0.20;;;;;;;;;;5103957;28;20066;-76
2022/10/07 08:09:56;;;;;;;0.22;0.22;;;;;;;;;;5084524;28;20363;-77
2022/10/07 08:12:22;;;;;;;0.38;0.38;;;;;;;;;;5099908;28;20090;-75
2022/10/07 08:14:52;;;;;;;0.00;0.00;;;;;;;;;;5092494;28;20053;-74
2022/10/07 08:17:18;;;;;;;2.85;1.05;;;;;;;;;;5092797;28;20535;-74
2022/10/07 08:19:44;;;;;;;0.00;0.00;;;;;;;;;;5100251;27;20027;-72
2022/10/07 08:22:16;;;;;;;0.60;0.60;;;;;;;;;;5099136;27;20425;-76
2022/10/07 08:24:42;;;;;;;0.38;0.38;;;;;;;;;;5080407;28;20027;-76
2022/10/07 08:27:09;;;;;;;0.10;0.10;;;;;;;;;;5101362;28;20024;-76
2022/10/07 08:29:36;;;;;;;0.90;0.90;;;;;;;;;;5081412;28;20053;-74
2022/10/07 08:32:03;;;;;;;0.00;0.00;;;;;;;;;;5082107;28;20401;-74
2022/10/07 08:34:29;;;;;;;0.00;0.00;;;;;;;;;;5085757;28;20024;-75
2022/10/07 08:36:55;;;;;;;2.20;2.10;;;;;;;;;;5093694;28;20286;-75
2022/10/07 08:39:23;;;;;;;0.40;0.40;;;;;;;;;;5079258;28;20135;-76
2022/10/07 08:42:00;;;;;;;0.95;0.95;;;;;;;;;;5096952;28;20373;-77
2022/10/07 08:44:34;;;;;;;0.00;0.00;;;;;;;;;;5100393;28;20016;-78
2022/10/07 08:47:15;;;;;;;2.85;0.77;;;;;;;;;;5077066;28;20032;-78
2022/10/07 08:49:52;;;;;;;0.00;0.00;;;;;;;;;;5101972;27;20115;-77
2022/10/07 08:52:20;;;;;;;0.00;0.00;;;;;;;;;;5100783;27;20024;-76
2022/10/07 08:54:46;;;;;;;0.00;0.00;;;;;;;;;;5104230;27;20024;-77
2022/10/07 08:57:20;;;;;;;2.72;2.58;;;;;;;;;;5107257;27;20027;-76
2022/10/07 08:59:49;;;;;;;0.00;0.00;;;;;;;;;;5091567;28;20107;-77
2022/10/07 09:02:35;;;;;;;0.85;0.50;;;;;;;;;;5081470;27;20032;-76
2022/10/07 09:05:37;;;;;;;0.00;0.00;;;;;;;;;;5107776;27;20027;-77
2022/10/07 09:08:13;;;;;;;0.05;0.05;;;;;;;;;;5039932;28;20029;-76
2022/10/07 09:10:42;;;;;;;0.00;0.00;;;;;;;;;;5082503;28;20036;-76
2022/10/07 09:13:11;;;;;;;0.00;0.00;;;;;;;;;;5102861;27;20039;-77
2022/10/07 09:15:47;;;;;;;0.00;0.00;;;;;;;;;;5100764;27;20084;-77
2022/10/07 09:18:16;;;;;;;1.75;1.65;;;;;;;;;;5103791;27;20027;-77
2022/10/07 09:20:45;;;;;;;0.95;0.93;;;;;;;;;;5082697;28;20070;-77
2022/10/07 09:23:14;;;;;;;1.92;1.33;;;;;;;;;;5104698;27;20039;-76
2022/10/07 09:25:40;;;;;;;0.00;0.00;;;;;;;;;;5105494;28;21668;-77
2022/10/07 09:28:14;;;;;;;0.00;0.00;;;;;;;;;;5102137;28;20023;-77
2022/10/07 09:30:41;;;;;;;1.33;1.27;;;;;;;;;;5105191;28;20051;-76
2022/10/07 09:33:18;;;;;;;0.00;0.00;;;;;;;;;;5100261;27;20323;-77
2022/10/07 09:35:51;;;;;;;0.00;0.00;;;;;;;;;;5107231;28;20401;-75
2022/10/07 09:38:28;;;;;;;0.00;0.00;;;;;;;;;;5104110;27;20024;-75
2022/10/07 09:41:18;;;;;;;0.93;0.70;;;;;;;;;;5111464;27;20047;-76
2022/10/07 09:43:53;;;;;;;0.00;0.00;;;;;;;;;;5111165;28;20028;-77
2022/10/07 09:46:31;;;;;;;0.20;0.20;;;;;;;;;;5085975;28;20028;-75
2022/10/07 09:48:59;;;;;;;0.00;0.00;;;;;;;;;;5084027;28;20020;-76
2022/10/07 09:51:26;;;;;;;0.00;0.00;;;;;;;;;;5090338;28;20363;-76
2022/10/07 09:53:56;;;;;;;0.00;0.00;;;;;;;;;;5081307;28;20034;-76
2022/10/07 09:56:33;;;;;;;0.00;0.00;;;;;;;;;;5108750;28;20460;-76
2022/10/07 09:59:16;;;;;;;0.28;0.28;;;;;;;;;;5106297;28;20020;-76
2022/10/07 10:01:48;;;;;;;0.10;0.10;;;;;;;;;;5084954;28;20742;-76
2022/10/07 10:04:16;;;;;;;0.10;0.10;;;;;;;;;;5080934;28;20062;-76
2022/10/07 10:06:52;;;;;;;1.05;0.95;;;;;;;;;;5090532;28;20084;-76
2022/10/07 10:09:21;;;;;;;1.95;1.85;;;;;;;;;;5083659;28;20051;-74
2022/10/07 10:12:06;;;;;;;0.00;0.00;;;;;;;;;;5098517;28;20030;-77
2022/10/07 10:14:36;;;;;;;0.00;0.00;;;;;;;;;;5079415;28;20039;-83
2022/10/07 10:17:04;;;;;;;0.00;0.00;;;;;;;;;;5081789;28;20466;-80
2022/10/07 10:19:30;;;;;;;39.85;13.38;;;;;;;;;;5099661;28;20166;-76
2022/10/07 10:21:57;;;;;;;0.00;0.00;;;;;;;;;;5096854;28;20023;-79
2022/10/07 10:27:21;;;;;;;0.00;0.00;;;;;;;;;;5100764;28;20054;-83
2022/10/07 10:30:02;;;;;;;0.00;0.00;;;;;;;;;;5103081;28;20034;-80
2022/10/07 10:32:31;;;;;;;0.00;0.00;;;;;;;;;;5083750;28;20030;-79
2022/10/07 10:35:33;;;;;;;0.00;0.00;;;;;;;;;;5097297;28;20020;-80
2022/10/07 10:38:02;;;;;;;0.00;0.00;;;;;;;;;;5005962;28;20477;-82
2022/10/07 10:40:28;;;;;;;0.00;0.00;;;;;;;;;;5025233;28;1674892;-79
2022/10/07 10:43:10;;;;;;;0.00;0.00;;;;;;;;;;5101306;28;20033;-77
2022/10/07 10:45:41;;;;;;;0.20;0.20;;;;;;;;;;5101095;27;20027;-75
2022/10/07 10:48:11;;;;;;;0.00;0.00;;;;;;;;;;5082778;27;20162;-80
2022/10/07 10:50:48;;;;;;;0.00;0.00;;;;;;;;;;5105640;27;20108;-79
2022/10/07 10:53:20;;;;;;;0.00;0.00;;;;;;;;;;5082178;28;20024;-81
2022/10/07 10:55:53;;;;;;;0.13;0.13;;;;;;;;;;5082490;28;20035;-79
2022/10/07 10:58:35;;;;;;;0.00;0.00;;;;;;;;;;5098669;28;20068;-79
2022/10/07 11:01:31;;;;;;;0.00;0.00;;;;;;;;;;5102511;27;20625;-81
2022/10/07 11:04:15;;;;;;;0.00;0.00;;;;;;;;;;5089318;27;20027;-81
2022/10/07 11:06:45;;;;;;;0.43;0.43;;;;;;;;;;5113985;27;20061;-79
2022/10/07 11:09:21;;;;;;;0.00;0.00;;;;;;;;;;5115019;27;20032;-77
2022/10/07 11:11:48;;;;;;;0.00;0.00;;;;;;;;;;5083163;28;20551;-78
2022/10/07 11:14:19;;;;;;;0.00;0.00;;;;;;;;;;5089317;28;20024;-78
2022/10/07 11:16:48;;;;;;;0.00;0.00;;;;;;;;;;5088692;28;20028;-79
2022/10/07 11:19:35;;;;;;;0.00;0.00;;;;;;;;;;5106094;27;20393;-80
2022/10/07 11:22:02;;;;;;;0.00;0.00;;;;;;;;;;5081597;28;20118;-78
2022/10/07 11:24:40;;;;;;;0.00;0.00;;;;;;;;;;5099524;28;20024;-79
2022/10/07 11:27:22;;;;;;;0.00;0.00;;;;;;;;;;5081756;28;20023;-77
2022/10/07 11:29:58;;;;;;;0.00;0.00;;;;;;;;;;5095044;27;20115;-80
2022/10/07 11:32:37;;;;;;;0.00;0.00;;;;;;;;;;5097978;27;20507;-78
2022/10/07 11:35:03;;;;;;;0.03;0.03;;;;;;;;;;5098007;28;20031;-80
2022/10/07 11:37:32;;;;;;;0.10;0.10;;;;;;;;;;5080909;28;20042;-78
2022/10/07 11:39:59;;;;;;;0.00;0.00;;;;;;;;;;5103187;27;20035;-78
2022/10/07 11:42:26;;;;;;;0.00;0.00;;;;;;;;;;5090340;28;20048;-78
2022/10/07 11:44:56;;;;;;;0.00;0.00;;;;;;;;;;5106706;27;20041;-77
2022/10/07 11:47:30;;;;;;;0.00;0.00;;;;;;;;;;5097785;27;20418;-75
2022/10/07 11:50:01;;;;;;;0.00;0.00;;;;;;;;;;5110484;27;20024;-75
2022/10/07 11:52:30;;;;;;;0.03;0.03;;;;;;;;;;5108438;27;20024;-78
2022/10/07 11:55:07;;;;;;;0.00;0.00;;;;;;;;;;5101979;27;20024;-76
2022/10/07 11:57:35;;;;;;;0.00;0.00;;;;;;;;;;5098785;27;20081;-76
2022/10/07 12:00:21;;;;;;;0.00;0.00;;;;;;;;;;5107484;27;20036;-76
2022/10/07 12:02:48;;;;;;;0.00;0.00;;;;;;;;;;5104999;27;20125;-75
2022/10/07 12:05:32;;;;;;;0.00;0.00;;;;;;;;;;5102762;28;20039;-75
2022/10/07 12:08:17;;;;;;;0.00;0.00;;;;;;;;;;5083712;28;20067;-79
2022/10/07 12:10:43;;;;;;;0.00;0.00;;;;;;;;;;5101647;27;20027;-77
2022/10/07 12:13:12;;;;;;;0.00;0.00;;;;;;;;;;5106001;27;20489;-78
2022/10/07 12:15:41;;;;;;;0.00;0.00;;;;;;;;;;5107401;27;20027;-77
2022/10/07 12:18:09;;;;;;;0.30;0.30;;;;;;;;;;5103347;28;21438;-78
2022/10/07 12:20:51;;;;;;;0.10;0.10;;;;;;;;;;5104280;28;20465;-78
2022/10/07 12:23:21;;;;;;;0.10;0.10;;;;;;;;;;5086788;28;20031;-77
2022/10/07 12:25:48;;;;;;;0.00;0.00;;;;;;;;;;5103175;27;20030;-78
2022/10/07 12:28:47;;;;;;;1.05;1.05;;;;;;;;;;5098044;28;20059;-77
2022/10/07 12:31:25;;;;;;;0.00;0.00;;;;;;;;;;5085362;28;20373;-78
2022/10/07 12:33:55;;;;;;;0.20;0.20;;;;;;;;;;5080536;28;20036;-77
2022/10/07 12:36:21;;;;;;;0.00;0.00;;;;;;;;;;5104807;28;20024;-78
2022/10/07 12:38:58;;;;;;;0.20;0.20;;;;;;;;;;5106136;28;20021;-76
2022/10/07 12:41:26;;;;;;;0.08;0.08;;;;;;;;;;5101157;28;20118;-77
2022/10/07 12:44:09;;;;;;;0.00;0.00;;;;;;;;;;5102932;28;20031;-77
2022/10/07 12:46:47;;;;;;;0.30;0.30;;;;;;;;;;5101676;28;20059;-76
2022/10/07 12:49:25;;;;;;;0.00;0.00;;;;;;;;;;5109931;28;20061;-78
2022/10/07 12:51:56;;;;;;;0.08;0.08;;;;;;;;;;5101296;28;20451;-78
2022/10/07 12:54:33;;;;;;;0.47;0.47;;;;;;;;;;5083469;28;20031;-77
2022/10/07 12:57:01;;;;;;;0.32;0.32;;;;;;;;;;5087131;28;20039;-78
2022/10/07 12:59:46;;;;;;;0.00;0.00;;;;;;;;;;5093283;28;20024;-78
2022/10/07 13:02:23;;;;;;;0.00;0.00;;;;;;;;;;5107546;28;20266;-79
2022/10/07 13:04:52;;;;;;;0.00;0.00;;;;;;;;;;5103328;28;20094;-77
2022/10/07 13:07:48;;;;;;;1.60;0.93;;;;;;;;;;5104489;28;20028;-78
2022/10/07 13:10:32;;;;;;;8.52;7.97;;;;;;;;;;5057686;28;20037;-77
2022/10/07 13:13:03;;;;;;;5.45;5.07;;;;;;;;;;5127177;28;20058;-78
2022/10/07 13:15:32;;;;;;;0.00;0.00;;;;;;;;;;5130450;28;20125;-77
2022/10/07 13:18:02;;;;;;;2.30;2.10;;;;;;;;;;5091805;28;20484;-78
2022/10/07 13:20:32;;;;;;;0.00;0.00;;;;;;;;;;5086672;28;20038;-77
2022/10/07 13:23:02;;;;;;;0.00;0.00;;;;;;;;;;5078571;28;20051;-77
2022/10/07 13:25:30;;;;;;;0.00;0.00;;;;;;;;;;5099992;28;20032;-77
2022/10/07 13:27:58;;;;;;;0.00;0.00;;;;;;;;;;5107636;28;20053;-77
2022/10/07 13:30:50;;;;;;;0.00;0.00;;;;;;;;;;5100755;28;20024;-78
2022/10/07 13:33:17;;;;;;;0.00;0.00;;;;;;;;;;5095020;28;20290;-78
2022/10/07 13:35:43;;;;;;;0.15;0.15;;;;;;;;;;5100249;28;20165;-78
2022/10/07 13:38:29;;;;;;;7.15;6.55;;;;;;;;;;5117537;28;20047;-78
2022/10/07 13:41:01;;;;;;;0.00;0.00;;;;;;;;;;5112266;27;20054;-78
2022/10/07 13:43:28;;;;;;;0.00;0.00;;;;;;;;;;5114263;27;20051;-78
2022/10/07 13:45:55;;;;;;;1.90;1.73;;;;;;;;;;5106336;28;20036;-78
2022/10/07 13:48:24;;;;;;;0.00;0.00;;;;;;;;;;5098697;28;20440;-78
2022/10/07 13:50:53;;;;;;;6.38;5.85;;;;;;;;;;5098327;28;20023;-77
2022/10/07 13:53:22;;;;;;;0.00;0.00;;;;;;;;;;5097818;28;20024;-77
2022/10/07 13:55:48;;;;;;;0.00;0.00;;;;;;;;;;5116381;28;20043;-78
2022/10/07 13:58:15;;;;;;;6.95;6.47;;;;;;;;;;5102939;28;20095;-78
2022/10/07 14:00:44;;;;;;;0.00;0.00;;;;;;;;;;5109338;27;20031;-78
2022/10/07 14:03:16;;;;;;;0.60;0.60;;;;;;;;;;5105878;27;20557;-76
2022/10/07 14:05:50;;;;;;;0.00;0.00;;;;;;;;;;5091956;28;20035;-77
2022/10/07 14:08:21;;;;;;;0.00;0.00;;;;;;;;;;5085939;28;20114;-78
2022/10/07 14:10:59;;;;;;;0.00;0.00;;;;;;;;;;5087773;28;20402;-77
2022/10/07 14:13:27;;;;;;;0.00;0.00;;;;;;;;;;5086916;27;20030;-78
2022/10/07 14:15:54;;;;;;;0.00;0.00;;;;;;;;;;5099759;28;20020;-77
2022/10/07 14:18:21;;;;;;;0.00;0.00;;;;;;;;;;5104525;28;20031;-77
2022/10/07 14:20:52;;;;;;;0.80;0.80;;;;;;;;;;5095099;28;20055;-77
2022/10/07 14:23:18;;;;;;;0.00;0.00;;;;;;;;;;5091975;28;20027;-78
2022/10/07 14:25:52;;;;;;;0.88;0.88;;;;;;;;;;5113851;28;20365;-76
2022/10/07 14:28:22;;;;;;;0.08;0.08;;;;;;;;;;5102397;27;20039;-77
2022/10/07 14:37:09;;;;;;;0.25;0.25;;;;;;;;;;5096039;28;20174;-77
2022/10/07 14:39:48;;;;;;;0.00;0.00;;;;;;;;;;5108273;28;20023;-77
2022/10/07 14:42:28;;;;;;;0.00;0.00;;;;;;;;;;5110776;28;20072;-77
2022/10/07 14:44:56;;;;;;;0.00;0.00;;;;;;;;;;5085336;28;20106;-76
2022/10/07 14:47:24;;;;;;;0.00;0.00;;;;;;;;;;5107856;28;20328;-77
2022/10/07 14:49:53;;;;;;;0.32;0.32;;;;;;;;;;5090778;28;20035;-77
2022/10/07 14:52:30;;;;;;;1.75;1.65;;;;;;;;;;5108938;27;20035;-77
2022/10/07 14:54:57;;;;;;;0.00;0.00;;;;;;;;;;5076336;28;20035;-76
2022/10/07 14:57:24;;;;;;;0.00;0.00;;;;;;;;;;5076698;28;20501;-76
2022/10/07 14:59:51;;;;;;;0.00;0.00;;;;;;;;;;5076264;28;20042;-76
2022/10/07 15:02:17;;;;;;;0.28;0.28;;;;;;;;;;5094437;28;20055;-76
2022/10/07 15:04:44;;;;;;;0.00;0.00;;;;;;;;;;5076193;28;20083;-76
2022/10/07 15:07:14;;;;;;;0.00;0.00;;;;;;;;;;5076116;28;20061;-76
2022/10/07 15:09:47;;;;;;;0.00;0.00;;;;;;;;;;5076525;28;20263;-76
2022/10/07 15:12:15;;;;;;;0.00;0.00;;;;;;;;;;5095508;28;20031;-76
2022/10/07 15:14:41;;;;;;;0.10;0.10;;;;;;;;;;5076202;28;20070;-77
2022/10/07 15:17:10;;;;;;;0.85;0.85;;;;;;;;;;5094644;28;20050;-76
2022/10/07 15:19:36;;;;;;;0.00;0.00;;;;;;;;;;5093945;28;20016;-76